Arlington, DC

12:35 PM EST on November 26, 2014 (GMT -0500)
Washington | Change Station
CLOSE
Current Station
Airport
Location: Washington,
Elevation: 13 ft
Nearby Weather Stations

Elev 13 ft 38.85 °N, 77.03 °W | Updated 34 minutes ago

Snow
Snow
37 °F
Feels Like 31 °F
N
9
Wind Variable Wind from NNE

Today
High -- | Low -- °F
--% Chance of Precip.
Yesterday
High -- | Low -- °F
Precip. -- in
7:02 AM 4:48 PM
Waxing Crescent, 21% visible
Pressure 29.99 in
Visibility 5.0 miles
Clouds Overcast 600 ft
Windchill 31 °F
Dew Point 34 °F
Humidity 87%
Rainfall 0.88 in
Snow Depth Not available.
UV 1 out of 12
Pollen .10 out of 12
Air Quality Not available.
Flu Activity Not available.
SPECI KDCA 261701Z 02008KT 5SM -RA BR OVC006 03/01 A2999 RMK AO2 SNE1657 P0000

More Conditions Fewer Conditions

Pressure 29.99 in
Visibility 5.0 miles
Clouds Overcast 600 ft
Windchill 31 °F
Dew Point 34 °F
Humidity 87%
Rainfall 0.88 in
Snow Depth Not available.
UV 1 out of 12
Pollen .10 out of 12
Air Quality Not available.
Flu Activity Not available.
SPECI KDCA 261701Z 02008KT 5SM -RA BR OVC006 03/01 A2999 RMK AO2 SNE1657 P0000

More Conditions Fewer Conditions

10-Day Weather Forecast

Almanac

Astronomy

Nov. 26, 2014 Rise Set
Actual Time
Civil Twilight
Nautical Twilight
Astronomical Twilight
Moon
Length of Visible Light
Length of Day
Tomorrow will be .
, % of the Moon is Illuminated

Today's Extremes

State Highs State Lows

Community

WunderPhotos

Upload Photos

1,773,804 photos uploaded!

WunderBlogs® & News

Nearby

Air Quality

  Air Quality AQ Index Pollutant
Not available.

Snow Depth

Station Depth Elevation

Earthquake Activity

City Distance Mag. Time & Date
Minimum magnitude displayed is 2.5.

Coastal Water Temperatures

Place Temperature

Nearby Weather Stations